Time;durP1;ratioP1;P1;durP2;ratioP2;P2;SDS_P1;SDS_P2;PMS_P1;PMS_P2;Temp;Humidity;BMP_temperature;BMP_pressure;BME280_temperature;BME280_humidity;BME280_pressure;Samples;Min_cycle;Max_cycle;Signal;HPM_P1;HPM_P2
2022/07/12 00:01:55;;;;;;;3.17;1.40;;;13.80;99.90;;;;;;5013099;28;20866;-63
2022/07/12 00:04:22;;;;;;;1.63;1.40;;;13.80;99.90;;;;;;5010019;28;20047;-63
2022/07/12 00:06:49;;;;;;;5.50;1.42;;;13.80;99.90;;;;;;5011469;28;20036;-63
2022/07/12 00:09:16;;;;;;;4.47;1.95;;;13.70;99.90;;;;;;5014164;28;20044;-63
2022/07/12 00:11:43;;;;;;;2.20;1.40;;;13.60;99.90;;;;;;5007067;28;20040;-63
2022/07/12 00:14:11;;;;;;;1.95;1.80;;;13.60;99.90;;;;;;5012159;28;20585;-63
2022/07/12 00:16:38;;;;;;;1.88;1.75;;;13.50;99.90;;;;;;5007513;28;20045;-63
2022/07/12 00:19:05;;;;;;;2.72;1.35;;;13.50;99.90;;;;;;5012637;28;20134;-63
2022/07/12 00:21:32;;;;;;;;;;;13.50;99.90;;;;;;5024235;28;20037;-63
2022/07/12 00:23:59;;;;;;;3.00;1.30;;;13.50;99.90;;;;;;5007118;28;20038;-63
2022/07/12 00:26:26;;;;;;;1.70;1.60;;;13.40;99.90;;;;;;4990010;28;20373;-63
2022/07/12 00:28:56;;;;;;;2.05;1.30;;;13.40;99.90;;;;;;4992671;28;20047;-63
2022/07/12 00:31:23;;;;;;;6.18;1.70;;;13.40;99.90;;;;;;4993554;28;20040;-63
2022/07/12 00:33:50;;;;;;;5.00;1.40;;;13.30;99.90;;;;;;4991032;28;20483;-63
2022/07/12 00:36:17;;;;;;;1.65;1.40;;;13.30;99.90;;;;;;4991220;28;20056;-63
2022/07/12 00:38:44;;;;;;;;;;;13.30;99.90;;;;;;4991428;28;20083;-63
2022/07/12 00:41:11;;;;;;;1.92;1.15;;;13.20;99.90;;;;;;5006548;28;20021;-63
2022/07/12 00:43:38;;;;;;;2.85;1.20;;;13.20;99.90;;;;;;5008996;28;20138;-63
2022/07/12 00:46:05;;;;;;;1.33;1.20;;;13.20;99.90;;;;;;4991673;28;20047;-63
2022/07/12 00:48:33;;;;;;;1.92;1.27;;;13.20;99.90;;;;;;5012418;28;20354;-63
2022/07/12 00:51:01;;;;;;;1.35;1.25;;;13.20;99.90;;;;;;5010763;28;20052;-63
2022/07/12 00:53:28;;;;;;;5.10;1.52;;;13.10;99.90;;;;;;5012636;28;20225;-63
2022/07/12 00:55:59;;;;;;;1.33;1.23;;;13.10;99.90;;;;;;5010625;28;20652;-63
2022/07/12 00:58:27;;;;;;;2.75;1.30;;;13.00;99.90;;;;;;5012643;28;20048;-63
2022/07/12 01:00:58;;;;;;;1.63;1.52;;;13.00;99.90;;;;;;5011485;28;20151;-63
2022/07/12 01:03:27;;;;;;;1.42;1.30;;;13.00;99.90;;;;;;5012217;28;20254;-63
2022/07/12 01:05:56;;;;;;;1.13;0.88;;;13.00;99.90;;;;;;5005869;28;20048;-63
2022/07/12 01:08:23;;;;;;;1.27;1.10;;;13.00;99.90;;;;;;4983450;28;20045;-63
2022/07/12 01:10:51;;;;;;;2.75;1.25;;;13.00;99.90;;;;;;4989476;28;20041;-63
2022/07/12 01:13:18;;;;;;;2.80;1.50;;;13.00;99.90;;;;;;4988317;28;20361;-63
2022/07/12 01:15:46;;;;;;;1.38;1.27;;;12.90;99.90;;;;;;4993019;28;20147;-63
2022/07/12 01:18:15;;;;;;;1.38;1.13;;;13.00;99.90;;;;;;4988503;28;20111;-63
2022/07/12 01:20:43;;;;;;;1.98;1.40;;;12.90;99.90;;;;;;4993639;28;20060;-63
2022/07/12 01:23:14;;;;;;;2.78;1.42;;;12.90;99.90;;;;;;4990004;28;20098;-63
2022/07/12 01:25:41;;;;;;;1.50;1.40;;;12.90;99.90;;;;;;5008436;28;20291;-63
2022/07/12 01:28:08;;;;;;;;;;;12.80;99.90;;;;;;5013048;28;20371;-63
2022/07/12 01:30:35;;;;;;;1.70;1.40;;;12.80;99.90;;;;;;5010330;28;20009;-62
2022/07/12 01:33:02;;;;;;;3.97;1.50;;;12.80;99.90;;;;;;5012462;28;20547;-63
2022/07/12 01:35:31;;;;;;;2.72;1.30;;;12.70;99.90;;;;;;5007130;28;20806;-63
2022/07/12 01:37:58;;;;;;;1.90;1.33;;;12.80;99.90;;;;;;5011344;28;20477;-63
2022/07/12 01:40:25;;;;;;;1.73;1.23;;;12.70;99.90;;;;;;5003931;28;20040;-63
2022/07/12 01:42:54;;;;;;;2.85;1.52;;;12.70;99.90;;;;;;5010273;28;20036;-63
2022/07/12 01:45:22;;;;;;;3.33;1.70;;;12.70;99.90;;;;;;5005296;28;20036;-63
2022/07/12 01:47:49;;;;;;;1.73;1.40;;;12.70;99.90;;;;;;5006199;28;20055;-63
2022/07/12 01:50:16;;;;;;;1.40;1.25;;;12.70;99.90;;;;;;5013271;28;20045;-63
2022/07/12 01:52:44;;;;;;;2.30;1.50;;;12.60;99.90;;;;;;5009389;28;20967;-63
2022/07/12 01:55:11;;;;;;;3.78;1.60;;;12.60;99.90;;;;;;5011971;28;20416;-63
2022/07/12 01:57:42;;;;;;;3.65;1.40;;;12.60;99.90;;;;;;5007856;28;20551;-63
2022/07/12 02:00:10;;;;;;;2.13;1.73;;;12.50;99.90;;;;;;5012288;28;20033;-63
2022/07/12 02:02:38;;;;;;;2.78;1.33;;;12.50;99.90;;;;;;5008091;28;20709;-63
2022/07/12 02:05:05;;;;;;;2.30;1.52;;;12.50;99.90;;;;;;5008935;28;20382;-63
2022/07/12 02:07:33;;;;;;;3.10;1.60;;;12.40;99.90;;;;;;5007808;28;20246;-63
2022/07/12 02:10:00;;;;;;;3.15;1.75;;;12.40;99.90;;;;;;5008527;28;20040;-63
2022/07/12 02:12:28;;;;;;;4.22;1.75;;;12.30;99.90;;;;;;5007267;28;20148;-63
2022/07/12 02:14:55;;;;;;;2.55;1.65;;;12.30;99.90;;;;;;5006334;28;20044;-63
2022/07/12 02:17:22;;;;;;;1.50;1.40;;;12.20;99.90;;;;;;5012229;28;20204;-63
2022/07/12 02:19:49;;;;;;;2.65;1.90;;;12.20;99.90;;;;;;5010288;28;20366;-63
2022/07/12 02:22:16;;;;;;;3.80;2.05;;;12.20;99.90;;;;;;5011350;28;20834;-63
2022/07/12 02:24:42;;;;;;;;;;;12.20;99.90;;;;;;5005789;28;20041;-63
2022/07/12 02:27:10;;;;;;;1.80;1.60;;;12.20;99.90;;;;;;5011520;28;19928;-63
2022/07/12 02:29:37;;;;;;;2.47;1.70;;;12.20;99.90;;;;;;5005768;28;20039;-63
2022/07/12 02:32:04;;;;;;;4.82;1.95;;;12.20;99.90;;;;;;5024692;28;20111;-63
2022/07/12 02:34:31;;;;;;;2.42;1.77;;;12.10;99.90;;;;;;5011075;28;20569;-63
2022/07/12 02:36:58;;;;;;;;;;;12.10;99.90;;;;;;5009610;28;20056;-63
2022/07/12 02:39:25;;;;;;;2.90;1.93;;;12.10;99.90;;;;;;5009521;28;20161;-63
2022/07/12 02:41:53;;;;;;;1.67;1.55;;;12.10;99.90;;;;;;4994393;28;20048;-63
2022/07/12 02:44:20;;;;;;;2.25;1.73;;;12.10;99.90;;;;;;4995291;28;20587;-63
2022/07/12 02:46:47;;;;;;;1.95;1.85;;;12.10;99.90;;;;;;5008152;28;20264;-63
2022/07/12 02:49:14;;;;;;;2.22;1.50;;;12.10;99.90;;;;;;5011128;28;20972;-63
2022/07/12 02:51:41;;;;;;;2.20;1.55;;;12.10;99.90;;;;;;5016710;28;20260;-63
2022/07/12 02:54:08;;;;;;;3.38;1.83;;;12.10;99.90;;;;;;5012417;28;20785;-63
2022/07/12 02:56:35;;;;;;;3.33;1.63;;;12.00;99.90;;;;;;5015601;28;20193;-63
2022/07/12 02:59:02;;;;;;;1.83;1.45;;;12.00;99.90;;;;;;5010476;28;20040;-63
2022/07/12 03:01:29;;;;;;;3.85;1.70;;;12.00;99.90;;;;;;5000841;28;20821;-63
2022/07/12 03:03:57;;;;;;;2.25;1.70;;;12.00;99.90;;;;;;5005396;28;21010;-63
2022/07/12 03:06:24;;;;;;;2.13;1.70;;;12.00;99.90;;;;;;4988249;28;20780;-63
2022/07/12 03:08:51;;;;;;;3.03;1.88;;;12.00;99.90;;;;;;5009973;28;20045;-63
2022/07/12 03:11:18;;;;;;;2.10;1.90;;;12.00;99.90;;;;;;4997573;28;20174;-64
2022/07/12 03:13:45;;;;;;;2.15;1.58;;;12.00;99.90;;;;;;5032454;28;20045;-64
2022/07/12 03:16:13;;;;;;;3.22;1.45;;;12.00;99.90;;;;;;5009385;28;20134;-63
2022/07/12 03:18:40;;;;;;;1.58;1.42;;;11.90;99.90;;;;;;5014620;28;20140;-64
2022/07/12 03:21:08;;;;;;;5.60;1.70;;;11.90;99.90;;;;;;5011108;28;20209;-63
2022/07/12 03:23:35;;;;;;;2.13;1.67;;;11.90;99.90;;;;;;5025312;28;20139;-63
2022/07/12 03:26:02;;;;;;;2.00;1.48;;;11.90;99.90;;;;;;5030200;28;20032;-63
2022/07/12 03:28:29;;;;;;;12.38;4.07;;;11.90;99.90;;;;;;5012376;28;20883;-63
2022/07/12 03:30:56;;;;;;;2.97;1.48;;;11.90;99.90;;;;;;5015115;28;20547;-63
2022/07/12 03:33:24;;;;;;;8.65;1.50;;;11.90;99.90;;;;;;5028925;28;20048;-64
2022/07/12 03:35:59;;;;;;;1.67;1.20;;;11.90;99.90;;;;;;5015102;28;20107;-64
2022/07/12 03:38:27;;;;;;;2.05;1.30;;;11.90;99.90;;;;;;5012753;28;20068;-64
2022/07/12 03:40:54;;;;;;;2.10;1.27;;;11.90;99.90;;;;;;4999727;28;20059;-64
2022/07/12 03:43:21;;;;;;;7.05;1.70;;;11.90;99.90;;;;;;4991329;28;20033;-64
2022/07/12 03:45:48;;;;;;;2.28;1.67;;;11.90;99.90;;;;;;4994552;28;20052;-64
2022/07/12 03:48:16;;;;;;;1.88;1.20;;;11.90;99.90;;;;;;5009388;28;20087;-64
2022/07/12 03:50:45;;;;;;;1.67;1.50;;;11.90;99.90;;;;;;5008999;28;20316;-64
2022/07/12 03:53:12;;;;;;;2.40;1.23;;;11.90;99.90;;;;;;5012453;28;20610;-64
2022/07/12 03:55:40;;;;;;;1.35;1.25;;;11.90;99.90;;;;;;5009493;28;20198;-64
2022/07/12 03:58:06;;;;;;;1.63;1.05;;;11.80;99.90;;;;;;5011910;28;20055;-64
2022/07/12 04:00:34;;;;;;;3.42;1.70;;;11.90;99.90;;;;;;5011477;28;20033;-64
2022/07/12 04:03:01;;;;;;;3.65;1.70;;;11.80;99.90;;;;;;5014735;28;20037;-64
2022/07/12 04:05:29;;;;;;;1.65;1.30;;;11.80;99.90;;;;;;5011784;28;20048;-64
2022/07/12 04:07:56;;;;;;;1.48;1.35;;;11.90;99.90;;;;;;5011966;28;20036;-64
2022/07/12 04:10:23;;;;;;;2.42;1.67;;;11.80;99.90;;;;;;5015490;28;20040;-64
2022/07/12 04:12:50;;;;;;;1.50;1.40;;;11.90;99.90;;;;;;5009535;28;20033;-65
2022/07/12 04:15:18;;;;;;;2.30;1.83;;;11.90;99.90;;;;;;5027039;28;20043;-64
2022/07/12 04:17:46;;;;;;;2.35;1.35;;;11.90;99.90;;;;;;5009968;28;20186;-64
2022/07/12 04:20:14;;;;;;;1.85;1.45;;;11.90;99.90;;;;;;5009662;28;20390;-64
2022/07/12 04:22:44;;;;;;;1.73;1.55;;;12.00;99.90;;;;;;5014879;28;20028;-63
2022/07/12 04:25:11;;;;;;;1.40;1.20;;;12.00;99.90;;;;;;5004084;28;20581;-64
2022/07/12 04:27:38;;;;;;;13.27;1.60;;;12.10;99.90;;;;;;5014270;28;20047;-63
2022/07/12 04:30:05;;;;;;;3.65;1.63;;;12.10;99.90;;;;;;5012371;28;20045;-63
2022/07/12 04:32:32;;;;;;;2.60;2.28;;;12.10;99.90;;;;;;5012440;28;20040;-63
2022/07/12 04:34:59;;;;;;;3.13;1.90;;;12.10;99.90;;;;;;5006441;28;20293;-63
2022/07/12 04:37:26;;;;;;;2.25;1.58;;;12.10;99.90;;;;;;5013024;28;20044;-64
2022/07/12 04:39:54;;;;;;;2.78;1.60;;;12.20;99.90;;;;;;4995010;28;20129;-63
2022/07/12 04:42:21;;;;;;;5.25;2.10;;;12.20;99.90;;;;;;5026795;28;20082;-64
2022/07/12 04:44:48;;;;;;;2.83;1.90;;;12.20;99.90;;;;;;5012882;28;20622;-65
2022/07/12 04:47:15;;;;;;;1.70;1.60;;;12.30;99.90;;;;;;5008403;28;20316;-65
2022/07/12 04:49:42;;;;;;;1.67;1.58;;;12.30;99.90;;;;;;5010676;28;20040;-65
2022/07/12 04:52:09;;;;;;;1.70;1.60;;;12.30;99.90;;;;;;5012424;28;20550;-65
2022/07/12 04:54:36;;;;;;;1.73;1.30;;;12.30;99.90;;;;;;5013122;28;20305;-65
2022/07/12 04:57:03;;;;;;;;;;;12.30;99.90;;;;;;5013640;28;20594;-64
2022/07/12 04:59:30;;;;;;;1.83;1.63;;;12.40;99.90;;;;;;5013041;28;19928;-62
2022/07/12 05:01:57;;;;;;;1.50;1.40;;;12.50;99.90;;;;;;5010993;28;20040;-53
2022/07/12 05:04:24;;;;;;;3.17;1.73;;;12.50;99.90;;;;;;5003322;28;20945;-53
2022/07/12 05:06:52;;;;;;;3.55;1.73;;;12.60;99.90;;;;;;4997285;28;20111;-54
2022/07/12 05:09:19;;;;;;;3.13;1.42;;;12.70;99.90;;;;;;4988910;28;20059;-53
2022/07/12 05:11:47;;;;;;;2.08;1.35;;;12.70;99.90;;;;;;5007059;28;20060;-54
2022/07/12 05:14:13;;;;;;;2.75;1.98;;;12.90;99.90;;;;;;4991723;28;20423;-55
2022/07/12 05:16:40;;;;;;;;;;;13.00;99.90;;;;;;4994447;28;20544;-53
2022/07/12 05:19:07;;;;;;;5.13;2.45;;;13.10;99.90;;;;;;4994628;28;19996;-53
2022/07/12 05:21:35;;;;;;;5.95;1.85;;;13.20;99.90;;;;;;5006066;28;20033;-53
2022/07/12 05:24:03;;;;;;;2.40;2.13;;;13.30;99.90;;;;;;5002230;28;20044;-54
2022/07/12 05:26:31;;;;;;;4.47;1.92;;;13.40;99.90;;;;;;5012299;28;20958;-54
2022/07/12 05:28:58;;;;;;;3.15;1.67;;;13.60;99.90;;;;;;5026440;28;20559;-55
2022/07/12 05:31:25;;;;;;;2.65;1.95;;;13.60;99.90;;;;;;5028916;28;20045;-54
2022/07/12 05:33:53;;;;;;;3.80;1.90;;;13.70;99.90;;;;;;5012956;28;20825;-54
2022/07/12 05:36:20;;;;;;;4.75;1.70;;;13.80;99.90;;;;;;5011435;28;20075;-55
2022/07/12 05:38:47;;;;;;;2.33;1.48;;;13.90;99.90;;;;;;5007942;28;20045;-53
2022/07/12 05:41:15;;;;;;;3.05;1.65;;;14.00;99.90;;;;;;5007196;28;20044;-54
2022/07/12 05:43:43;;;;;;;2.10;1.27;;;14.00;99.90;;;;;;4991292;28;20595;-54
2022/07/12 05:46:10;;;;;;;3.70;1.92;;;14.10;99.90;;;;;;4990786;28;20884;-52
2022/07/12 05:48:39;;;;;;;2.28;1.80;;;14.20;99.90;;;;;;4992081;28;20028;-55
2022/07/12 05:53:51;;;;;;;2.42;2.13;;;14.30;99.90;;;;;;5010726;28;20033;-54
2022/07/12 05:56:18;;;;;;;;;;;14.40;99.90;;;;;;5012932;28;20139;-53
2022/07/12 05:58:45;;;;;;;6.13;2.03;;;14.50;99.90;;;;;;5009050;28;20715;-55
2022/07/12 06:01:12;;;;;;;2.22;1.83;;;14.60;99.90;;;;;;5005847;28;20052;-49
2022/07/12 06:03:39;;;;;;;5.78;2.22;;;14.60;99.90;;;;;;5011775;28;20048;-55
2022/07/12 06:06:06;;;;;;;3.28;2.03;;;14.70;99.90;;;;;;5001311;28;20130;-54
2022/07/12 06:08:33;;;;;;;4.25;1.85;;;14.80;99.90;;;;;;4993335;28;20048;-51
2022/07/12 06:11:00;;;;;;;2.88;2.13;;;14.80;99.90;;;;;;4985988;28;20839;-52
2022/07/12 06:13:28;;;;;;;4.35;2.20;;;14.90;99.90;;;;;;4993766;28;20578;-52
2022/07/12 06:15:55;;;;;;;6.25;2.30;;;15.00;99.90;;;;;;5011894;28;20358;-52
2022/07/12 06:18:22;;;;;;;4.70;1.83;;;15.10;99.90;;;;;;4993712;28;20114;-52
2022/07/12 06:20:50;;;;;;;2.92;2.03;;;15.20;99.90;;;;;;5011264;28;20041;-53
2022/07/12 06:23:17;;;;;;;3.88;2.30;;;15.30;99.90;;;;;;4995042;28;20625;-52
2022/07/12 06:25:45;;;;;;;14.60;2.42;;;15.40;99.90;;;;;;5014924;28;20040;-53
2022/07/12 06:28:19;;;;;;;5.28;2.35;;;15.50;99.90;;;;;;5014685;28;20682;-58
2022/07/12 06:30:46;;;;;;;;;;;15.60;99.90;;;;;;5027808;28;20445;-58
2022/07/12 06:33:13;;;;;;;7.43;2.50;;;15.70;99.90;;;;;;5015191;28;19928;-59
2022/07/12 06:35:40;;;;;;;5.28;2.40;;;15.80;99.90;;;;;;5011988;28;20047;-57
2022/07/12 06:38:07;;;;;;;5.05;2.85;;;15.90;99.90;;;;;;5008117;28;20402;-58
2022/07/12 06:40:34;;;;;;;2.30;2.10;;;16.00;99.90;;;;;;5015871;28;20028;-56
2022/07/12 06:43:02;;;;;;;5.85;2.42;;;16.10;99.90;;;;;;5031553;28;20383;-57
2022/07/12 06:45:29;;;;;;;7.13;3.00;;;16.20;99.90;;;;;;5027528;28;20043;-57
2022/07/12 06:47:57;;;;;;;5.20;2.45;;;16.40;99.90;;;;;;5028887;28;20441;-58
2022/07/12 06:50:24;;;;;;;3.95;2.17;;;16.50;99.90;;;;;;5012749;28;20039;-56
2022/07/12 06:52:52;;;;;;;4.40;1.90;;;16.60;99.90;;;;;;5000585;28;20429;-58
2022/07/12 06:55:19;;;;;;;10.63;2.65;;;16.70;99.90;;;;;;5014240;28;20834;-57
2022/07/12 06:57:46;;;;;;;4.28;2.50;;;16.80;99.90;;;;;;4986962;28;20147;-55
2022/07/12 07:00:14;;;;;;;6.43;2.60;;;17.00;99.90;;;;;;5015851;28;20110;-56
2022/07/12 07:02:41;;;;;;;13.15;4.15;;;17.20;99.90;;;;;;5014445;28;20585;-63
2022/07/12 07:05:10;;;;;;;5.95;2.55;;;17.30;99.90;;;;;;5013648;28;20324;-57
2022/07/12 07:07:38;;;;;;;5.85;3.10;;;17.40;99.90;;;;;;4992489;28;20032;-55
2022/07/12 07:10:06;;;;;;;6.10;2.40;;;17.50;99.90;;;;;;5009446;28;20041;-54
2022/07/12 07:12:33;;;;;;;9.45;2.63;;;17.70;99.90;;;;;;5009225;28;20040;-54
2022/07/12 07:15:00;;;;;;;4.30;2.58;;;17.80;99.90;;;;;;5011874;28;20628;-54
2022/07/12 07:17:27;;;;;;;4.53;2.47;;;17.90;99.90;;;;;;5015124;28;20097;-54
2022/07/12 07:19:54;;;;;;;6.88;2.67;;;18.10;99.90;;;;;;5026611;28;20598;-63
2022/07/12 07:22:21;;;;;;;4.40;2.47;;;18.20;99.90;;;;;;5013053;28;20754;-58
2022/07/12 07:24:49;;;;;;;6.45;2.15;;;18.40;99.90;;;;;;5006400;28;20111;-56
2022/07/12 07:27:16;;;;;;;8.32;2.35;;;18.60;99.90;;;;;;5013500;28;20348;-58
2022/07/12 07:32:29;;;;;;;2.40;2.20;;;18.80;99.90;;;;;;4994059;28;20825;-56
2022/07/12 07:34:56;;;;;;;4.25;2.20;;;19.00;99.90;;;;;;4993120;28;20463;-59
2022/07/12 07:37:23;;;;;;;3.38;2.33;;;19.00;99.90;;;;;;4998590;28;20151;-61
2022/07/12 07:39:50;;;;;;;4.70;2.40;;;19.10;99.90;;;;;;5004474;28;20184;-54
2022/07/12 07:42:18;;;;;;;3.35;2.38;;;19.10;99.90;;;;;;4987412;28;20441;-56
2022/07/12 07:44:45;;;;;;;4.78;2.78;;;19.20;99.90;;;;;;4993604;28;20040;-57
2022/07/12 07:47:41;;;;;;;4.43;2.80;;;19.30;99.90;;;;;;4989870;28;20187;-55
2022/07/12 07:50:29;;;;;;;3.20;2.10;;;19.30;99.90;;;;;;4989596;28;20336;-55
2022/07/12 07:52:57;;;;;;;2.95;1.83;;;19.40;99.90;;;;;;4996543;28;20040;-57
2022/07/12 07:55:24;;;;;;;2.05;1.80;;;19.50;99.90;;;;;;5006212;28;20787;-54
2022/07/12 07:57:51;;;;;;;1.88;1.35;;;19.60;99.90;;;;;;4994881;28;20155;-54
2022/07/12 08:00:19;;;;;;;3.75;1.67;;;19.70;99.90;;;;;;4992779;28;20833;-55
2022/07/12 08:02:46;;;;;;;1.77;1.40;;;19.80;99.90;;;;;;4994765;28;20033;-54
2022/07/12 08:05:13;;;;;;;5.97;2.20;;;19.90;99.90;;;;;;4985019;28;20037;-55
2022/07/12 08:07:40;;;;;;;7.63;2.60;;;20.00;99.90;;;;;;5010225;28;20037;-55
2022/07/12 08:10:20;;;;;;;5.63;2.50;;;20.20;99.90;;;;;;5011284;28;20230;-56
2022/07/12 08:12:47;;;;;;;2.58;2.28;;;20.30;99.90;;;;;;4995463;28;20385;-59
2022/07/12 08:15:15;;;;;;;3.25;2.55;;;20.50;99.90;;;;;;5006791;28;20033;-57
2022/07/12 08:17:42;;;;;;;2.05;1.80;;;20.70;99.90;;;;;;5010635;28;20270;-55
2022/07/12 08:20:20;;;;;;;;;;;20.90;99.90;;;;;;4999398;28;20702;-53
2022/07/12 08:23:08;;;;;;;6.22;2.08;;;21.10;99.90;;;;;;5024000;28;20842;-54
2022/07/12 08:25:35;;;;;;;6.10;2.03;;;21.50;99.90;;;;;;5014735;28;20570;-53
2022/07/12 08:28:02;;;;;;;4.50;2.13;;;21.70;99.90;;;;;;5029123;28;20041;-53
2022/07/12 08:30:29;;;;;;;4.68;1.67;;;22.00;99.90;;;;;;5004805;28;20040;-55
2022/07/12 08:32:56;;;;;;;2.53;1.95;;;22.30;99.90;;;;;;5027262;28;20044;-58
2022/07/12 08:35:23;;;;;;;2.63;2.17;;;22.60;99.90;;;;;;5012990;28;20359;-56
2022/07/12 08:37:50;;;;;;;3.42;1.98;;;22.80;99.90;;;;;;5012868;28;20574;-57
2022/07/12 08:40:19;;;;;;;3.45;2.17;;;23.00;99.90;;;;;;5004405;28;20301;-57
2022/07/12 08:42:47;;;;;;;6.53;1.88;;;23.20;99.90;;;;;;5009493;28;20115;-55
2022/07/12 08:45:15;;;;;;;2.63;1.77;;;23.30;99.90;;;;;;4992992;28;20053;-55
2022/07/12 08:47:43;;;;;;;2.47;1.80;;;23.50;99.90;;;;;;4992386;28;20045;-54
2022/07/12 08:50:22;;;;;;;2.30;1.80;;;23.60;99.90;;;;;;4990184;28;20099;-62
2022/07/12 08:52:52;;;;;;;3.47;1.58;;;23.70;99.90;;;;;;5002972;28;20101;-64
2022/07/12 08:55:25;;;;;;;2.75;1.67;;;23.90;99.90;;;;;;4991231;28;20048;-62
2022/07/12 08:57:54;;;;;;;6.03;2.40;;;24.10;99.90;;;;;;5015661;28;20055;-61
2022/07/12 09:00:24;;;;;;;2.05;1.83;;;24.20;99.90;;;;;;5013908;28;20064;-62
2022/07/12 09:02:54;;;;;;;5.05;1.95;;;24.30;99.90;;;;;;5030366;28;20137;-62
2022/07/12 09:05:29;;;;;;;8.23;1.52;;;24.40;99.90;;;;;;5007959;28;20193;-62
2022/07/12 09:08:07;;;;;;;1.33;0.95;;;24.40;96.40;;;;;;4982087;28;20209;-62
2022/07/12 09:10:51;;;;;;;5.03;1.40;;;24.40;94.30;;;;;;5008894;28;20045;-62
2022/07/12 09:13:19;;;;;;;3.58;1.48;;;24.40;95.70;;;;;;4995040;28;20758;-62
2022/07/12 09:15:47;;;;;;;1.50;1.08;;;24.50;94.10;;;;;;5013645;28;20157;-62
2022/07/12 09:18:22;;;;;;;3.03;1.48;;;24.60;91.20;;;;;;5013212;28;20577;-62
2022/07/12 09:20:52;;;;;;;1.45;1.13;;;24.70;95.30;;;;;;5015146;28;20137;-62
2022/07/12 09:23:19;;;;;;;2.95;1.83;;;24.70;93.20;;;;;;5010029;28;20193;-62
2022/07/12 09:25:48;;;;;;;0.70;0.70;;;24.80;91.50;;;;;;5013114;28;20176;-62
2022/07/12 09:28:16;;;;;;;1.98;1.25;;;24.90;90.70;;;;;;5010693;28;20584;-62
2022/07/12 09:30:49;;;;;;;4.20;1.08;;;24.90;89.70;;;;;;5010773;28;20209;-62
2022/07/12 09:36:07;;;;;;;6.03;1.25;;;25.10;90.10;;;;;;5010218;28;20390;-62
2022/07/12 09:38:38;;;;;;;1.90;1.20;;;25.30;89.00;;;;;;5012142;28;20044;-63
2022/07/12 09:41:09;;;;;;;3.03;1.20;;;25.30;81.00;;;;;;4995354;28;20727;-63
2022/07/12 09:43:37;;;;;;;1.13;1.00;;;25.30;80.60;;;;;;5007694;28;20045;-62
2022/07/12 09:46:04;;;;;;;4.43;1.08;;;25.50;85.60;;;;;;4992114;28;20041;-62
2022/07/12 09:48:33;;;;;;;5.30;0.77;;;25.60;83.60;;;;;;4994221;28;20037;-62
2022/07/12 09:51:02;;;;;;;1.02;0.98;;;25.70;77.60;;;;;;4991672;28;20202;-62
2022/07/12 09:53:33;;;;;;;2.42;0.88;;;25.80;78.70;;;;;;4991029;28;20392;-62
2022/07/12 09:56:06;;;;;;;3.75;1.00;;;25.80;75.70;;;;;;5001670;28;20219;-62
2022/07/12 09:58:43;;;;;;;5.68;0.88;;;25.70;73.50;;;;;;4994133;28;20834;-62
2022/07/12 10:01:11;;;;;;;1.15;1.02;;;25.70;70.80;;;;;;4991100;28;20049;-61
2022/07/12 10:03:44;;;;;;;1.42;1.10;;;25.80;70.20;;;;;;4991108;28;20060;-62
2022/07/12 10:06:15;;;;;;;3.45;1.05;;;25.90;69.80;;;;;;4991937;28;20044;-62
2022/07/12 10:08:43;;;;;;;1.10;0.93;;;26.00;69.70;;;;;;4991016;28;20037;-61
2022/07/12 10:11:13;;;;;;;0.70;0.70;;;26.00;64.00;;;;;;5015015;28;20052;-62
2022/07/12 10:14:01;;;;;;;0.70;0.70;;;26.20;71.70;;;;;;5010302;28;20416;-62
2022/07/12 10:16:33;;;;;;;2.17;1.20;;;26.40;71.10;;;;;;5015532;28;20037;-62
2022/07/12 10:19:25;;;;;;;1.63;1.10;;;26.50;68.70;;;;;;5009242;28;20328;-63
2022/07/12 10:21:54;;;;;;;4.72;1.10;;;26.60;64.20;;;;;;5014576;28;20441;-63
2022/07/12 10:24:33;;;;;;;3.08;1.25;;;26.70;68.10;;;;;;5002169;28;20383;-62
2022/07/12 10:27:21;;;;;;;1.35;1.25;;;26.80;65.40;;;;;;4995602;28;20139;-62
2022/07/12 10:29:51;;;;;;;5.03;1.02;;;26.70;62.00;;;;;;4991048;28;20052;-63
2022/07/12 10:32:39;;;;;;;2.83;1.35;;;26.70;63.90;;;;;;4991742;28;20045;-62
2022/07/12 10:35:11;;;;;;;3.20;1.60;;;26.80;63.60;;;;;;4990192;28;20056;-62
2022/07/12 10:37:38;;;;;;;7.95;1.58;;;26.70;61.30;;;;;;5008308;28;20045;-62
2022/07/12 10:40:23;;;;;;;2.33;1.30;;;26.60;63.20;;;;;;4993046;28;20491;-61
2022/07/12 10:43:06;;;;;;;3.72;1.60;;;26.80;64.60;;;;;;4991923;28;20041;-62
2022/07/12 10:45:53;;;;;;;8.02;1.85;;;26.90;61.40;;;;;;4989018;28;20045;-62
2022/07/12 10:48:22;;;;;;;5.00;1.63;;;27.00;61.00;;;;;;4982673;28;20232;-62
2022/07/12 10:51:01;;;;;;;4.43;1.58;;;26.90;60.40;;;;;;4991468;28;20045;-62
2022/07/12 10:53:33;;;;;;;1.60;1.50;;;26.80;60.60;;;;;;4988567;28;20048;-63
2022/07/12 10:56:06;;;;;;;3.10;1.58;;;26.80;60.70;;;;;;4994393;28;20798;-62
2022/07/12 10:58:36;;;;;;;1.17;1.10;;;26.80;63.10;;;;;;4990657;28;20308;-62
2022/07/12 11:01:05;;;;;;;3.22;1.27;;;27.00;62.50;;;;;;4994610;28;20130;-63
2022/07/12 11:03:42;;;;;;;1.83;1.30;;;27.20;61.60;;;;;;4994076;28;20068;-62
2022/07/12 11:06:12;;;;;;;3.35;1.00;;;27.20;62.20;;;;;;5002051;28;20837;-61
2022/07/12 11:08:58;;;;;;;1.58;1.20;;;27.40;60.10;;;;;;5015688;28;20842;-63
2022/07/12 11:11:49;;;;;;;4.18;1.52;;;27.50;57.80;;;;;;4998421;28;20060;-62
2022/07/12 11:14:37;;;;;;;1.50;1.40;;;27.60;57.70;;;;;;5024170;28;20040;-60
2022/07/12 11:17:04;;;;;;;0.88;0.88;;;27.60;56.10;;;;;;5018231;28;20594;-63
2022/07/12 11:19:32;;;;;;;0.90;0.90;;;27.60;56.90;;;;;;5011102;28;20201;-63
2022/07/12 11:21:59;;;;;;;1.33;0.80;;;27.60;57.70;;;;;;5017505;28;20048;-63
2022/07/12 11:24:29;;;;;;;3.08;1.05;;;27.70;56.70;;;;;;5010384;28;20044;-62
2022/07/12 11:26:56;;;;;;;5.53;1.33;;;27.70;55.70;;;;;;5015967;28;20859;-62
2022/07/12 11:29:25;;;;;;;2.53;0.90;;;27.70;53.90;;;;;;5016002;28;20043;-62
2022/07/12 11:32:06;;;;;;;3.30;0.90;;;27.70;54.50;;;;;;5016311;28;20769;-63
2022/07/12 11:34:38;;;;;;;2.72;0.80;;;27.60;54.10;;;;;;5014581;28;20369;-62
2022/07/12 11:37:06;;;;;;;0.82;0.73;;;27.60;53.70;;;;;;5014908;28;20189;-62
2022/07/12 11:39:37;;;;;;;1.50;1.00;;;27.60;53.60;;;;;;5011229;28;20559;-62
2022/07/12 11:42:06;;;;;;;1.73;1.05;;;27.80;53.30;;;;;;4995417;28;20148;-62
2022/07/12 11:44:48;;;;;;;1.33;0.70;;;27.90;52.30;;;;;;4996554;28;20383;-62
2022/07/12 11:47:20;;;;;;;2.00;0.75;;;27.80;52.70;;;;;;5006295;28;20116;-64
2022/07/12 11:49:52;;;;;;;1.23;0.90;;;27.70;52.80;;;;;;4991855;28;20540;-62
2022/07/12 11:52:21;;;;;;;1.10;0.88;;;27.80;52.30;;;;;;4992417;28;20598;-62
2022/07/12 11:54:50;;;;;;;1.35;0.90;;;27.90;52.30;;;;;;4998649;28;20048;-62
2022/07/12 11:57:23;;;;;;;1.02;0.73;;;27.90;51.10;;;;;;5008963;28;20122;-62
2022/07/12 11:59:50;;;;;;;0.70;0.70;;;27.80;51.10;;;;;;5012813;28;20106;-62
2022/07/12 12:02:18;;;;;;;0.70;0.70;;;27.80;50.60;;;;;;5015527;28;20334;-62
2022/07/12 12:04:53;;;;;;;1.20;0.70;;;27.90;51.50;;;;;;5010477;28;20036;-62
2022/07/12 12:07:22;;;;;;;2.38;0.65;;;28.00;51.00;;;;;;4999011;28;20037;-61
2022/07/12 12:10:05;;;;;;;1.40;0.60;;;28.10;52.10;;;;;;4992074;28;20371;-62
2022/07/12 12:12:41;;;;;;;1.65;0.73;;;28.20;47.80;;;;;;5010980;28;20044;-63
2022/07/12 12:15:11;;;;;;;1.23;0.80;;;28.20;47.20;;;;;;4992572;28;20830;-62
2022/07/12 12:17:51;;;;;;;2.10;0.77;;;28.20;46.90;;;;;;4995903;28;20049;-62
2022/07/12 12:20:24;;;;;;;1.58;1.00;;;28.20;50.10;;;;;;4992134;28;20072;-61
2022/07/12 12:22:55;;;;;;;1.85;1.10;;;28.30;49.50;;;;;;4985706;28;20041;-61
2022/07/12 12:25:25;;;;;;;0.80;0.80;;;28.40;47.10;;;;;;5006041;28;20202;-62
2022/07/12 12:27:57;;;;;;;2.90;0.93;;;28.40;49.60;;;;;;4987658;28;20037;-62
2022/07/12 12:30:53;;;;;;;2.33;1.02;;;28.50;48.00;;;;;;4992488;28;20294;-62
2022/07/12 12:33:41;;;;;;;1.08;0.98;;;28.60;47.00;;;;;;4984968;28;20475;-62
2022/07/12 12:36:25;;;;;;;0.98;0.85;;;28.50;46.70;;;;;;4993446;28;20551;-62
2022/07/12 12:38:54;;;;;;;2.05;0.80;;;28.50;45.80;;;;;;4992987;28;20151;-62
2022/07/12 12:41:23;;;;;;;2.22;0.85;;;28.50;45.90;;;;;;5007802;28;20045;-62
2022/07/12 12:44:04;;;;;;;1.17;0.93;;;28.60;49.00;;;;;;5024138;28;20036;-63
2022/07/12 12:46:49;;;;;;;1.88;1.00;;;28.60;48.30;;;;;;5025660;28;20055;-62
2022/07/12 12:49:17;;;;;;;2.20;0.82;;;28.60;47.50;;;;;;5019887;28;20041;-62
2022/07/12 12:51:55;;;;;;;5.60;1.30;;;28.50;48.20;;;;;;5010892;28;20310;-62
2022/07/12 12:54:37;;;;;;;1.58;0.85;;;28.60;50.50;;;;;;5010671;28;20056;-62
2022/07/12 12:57:06;;;;;;;2.72;1.20;;;28.70;48.70;;;;;;4999971;28;20051;-61
2022/07/12 12:59:34;;;;;;;1.55;1.45;;;28.70;47.70;;;;;;4993129;28;20375;-63
2022/07/12 13:02:02;;;;;;;1.02;1.00;;;28.70;47.50;;;;;;4990275;28;20067;-61
2022/07/12 13:04:31;;;;;;;1.27;1.17;;;28.80;49.50;;;;;;4990167;28;20048;-62
2022/07/12 13:06:58;;;;;;;1.42;1.05;;;29.00;49.40;;;;;;5003141;28;20144;-62
2022/07/12 13:09:27;;;;;;;4.18;1.15;;;29.10;48.80;;;;;;5010126;28;20056;-62
2022/07/12 13:11:54;;;;;;;4.15;1.40;;;29.20;46.90;;;;;;4992028;28;20122;-62